createdAt,value
2018-07-09T00:00:58.503Z,23.35
2018-07-09T00:03:24.825Z,23.36
2018-07-09T00:05:51.376Z,23.32
2018-07-09T00:08:17.912Z,23.33
2018-07-09T00:10:44.585Z,23.35
2018-07-09T00:13:10.993Z,23.35
2018-07-09T00:15:37.423Z,23.35
2018-07-09T00:18:03.765Z,23.29
2018-07-09T00:20:30.129Z,23.34
2018-07-09T00:22:56.470Z,23.32
2018-07-09T00:25:22.859Z,23.24
2018-07-09T00:30:21.745Z,23.32
2018-07-09T00:32:48.115Z,23.32
2018-07-09T00:35:14.577Z,23.28
2018-07-09T00:37:41.003Z,23.27
2018-07-09T00:40:07.368Z,23.30
2018-07-09T00:42:33.801Z,23.27
2018-07-09T00:45:00.137Z,23.26
2018-07-09T00:47:26.515Z,23.27
2018-07-09T00:49:52.863Z,23.25
2018-07-09T00:52:19.235Z,23.25
2018-07-09T00:54:45.835Z,23.20
2018-07-09T00:57:12.210Z,23.24
2018-07-09T00:59:38.550Z,23.26
2018-07-09T01:02:04.914Z,23.27
2018-07-09T01:04:31.304Z,23.15
2018-07-09T01:06:57.659Z,23.03
2018-07-09T01:09:23.979Z,23.01
2018-07-09T01:11:50.474Z,22.92
2018-07-09T01:14:16.914Z,22.91
2018-07-09T01:16:43.230Z,22.84
2018-07-09T01:19:09.592Z,22.82
2018-07-09T01:21:36.221Z,22.75
2018-07-09T01:24:02.763Z,22.77
2018-07-09T01:26:29.074Z,22.72
2018-07-09T01:28:55.434Z,22.72
2018-07-09T01:31:21.768Z,22.72
2018-07-09T01:33:48.184Z,22.67
2018-07-09T01:36:14.505Z,22.62
2018-07-09T01:38:40.883Z,22.64
2018-07-09T01:41:07.244Z,22.60
2018-07-09T01:43:33.586Z,22.66
2018-07-09T01:45:59.956Z,22.64
2018-07-09T01:48:26.272Z,22.64
2018-07-09T01:50:52.607Z,22.66
2018-07-09T01:53:18.983Z,22.60
2018-07-09T01:55:45.432Z,22.59
2018-07-09T01:58:11.774Z,22.61
2018-07-09T02:00:38.183Z,22.54
2018-07-09T02:03:04.561Z,22.55
2018-07-09T02:05:30.917Z,22.59
2018-07-09T02:07:57.280Z,22.58
2018-07-09T02:10:24.004Z,22.57
2018-07-09T02:12:50.392Z,22.63
2018-07-09T02:15:16.759Z,22.52
2018-07-09T02:17:43.073Z,22.52
2018-07-09T02:20:09.402Z,22.53
2018-07-09T02:22:35.821Z,22.55
2018-07-09T02:25:02.148Z,22.51
2018-07-09T02:27:28.485Z,22.50
2018-07-09T02:29:54.814Z,22.46
2018-07-09T02:32:21.203Z,22.50
2018-07-09T02:34:47.585Z,22.55
2018-07-09T02:37:13.911Z,22.50
2018-07-09T02:39:40.284Z,22.53
2018-07-09T02:42:06.606Z,22.50
2018-07-09T02:44:33.020Z,22.45
2018-07-09T02:46:59.346Z,22.48
2018-07-09T02:49:25.676Z,22.45
2018-07-09T02:51:52.047Z,22.44
2018-07-09T02:54:18.410Z,22.48
2018-07-09T02:56:44.926Z,22.48
2018-07-09T02:59:11.315Z,22.44
2018-07-09T03:01:37.735Z,22.45
2018-07-09T03:04:04.137Z,22.36
2018-07-09T03:06:30.504Z,22.43
2018-07-09T03:08:56.855Z,22.45
2018-07-09T03:11:23.211Z,22.44
2018-07-09T03:13:49.617Z,22.46
2018-07-09T03:16:16.089Z,22.43
2018-07-09T03:18:42.420Z,22.40
2018-07-09T03:21:08.839Z,22.43
2018-07-09T03:23:35.230Z,22.42
2018-07-09T03:26:01.547Z,22.40
2018-07-09T03:28:27.894Z,22.39
2018-07-09T03:30:54.339Z,22.42
2018-07-09T03:33:21.527Z,22.44
2018-07-09T03:35:47.861Z,22.42
2018-07-09T03:38:14.189Z,22.48
2018-07-09T03:40:40.624Z,22.53
2018-07-09T03:43:06.982Z,22.57
2018-07-09T03:45:33.365Z,22.62
2018-07-09T03:47:59.716Z,22.65
2018-07-09T03:50:26.135Z,22.68
2018-07-09T03:52:52.456Z,22.73
2018-07-09T03:55:18.915Z,22.70
2018-07-09T03:57:45.319Z,22.73
2018-07-09T04:00:11.678Z,22.72
2018-07-09T04:02:38.053Z,22.75
2018-07-09T04:05:04.995Z,22.77
2018-07-09T04:07:31.363Z,22.80
2018-07-09T04:09:57.762Z,22.78
2018-07-09T04:12:24.171Z,22.81
2018-07-09T04:14:50.568Z,22.82
2018-07-09T04:17:16.884Z,22.84
2018-07-09T04:19:43.267Z,22.89
2018-07-09T04:22:09.635Z,22.87
2018-07-09T04:24:36.171Z,22.87
2018-07-09T04:27:02.523Z,22.91
2018-07-09T04:29:28.916Z,22.91
2018-07-09T04:31:55.327Z,22.90
2018-07-09T04:34:21.775Z,22.93
2018-07-09T04:36:48.154Z,22.93
2018-07-09T04:39:14.499Z,22.93
2018-07-09T04:41:40.900Z,22.92
2018-07-09T04:44:07.289Z,22.95
2018-07-09T04:46:33.614Z,22.97
2018-07-09T04:49:00.029Z,22.95
2018-07-09T04:51:26.396Z,22.97
2018-07-09T04:53:52.739Z,22.99
2018-07-09T04:56:19.117Z,23.02
2018-07-09T04:58:45.481Z,22.98
2018-07-09T05:01:12.188Z,23.05
2018-07-09T05:03:38.571Z,22.98
2018-07-09T05:06:04.954Z,23.05
2018-07-09T05:08:31.298Z,23.05
2018-07-09T05:10:57.740Z,23.08
2018-07-09T05:13:24.118Z,23.08
2018-07-09T05:15:50.454Z,23.11
2018-07-09T05:18:16.826Z,23.15
2018-07-09T05:20:43.244Z,23.16
2018-07-09T05:23:09.683Z,23.14
2018-07-09T05:25:36.096Z,23.20
2018-07-09T05:28:02.470Z,23.18
2018-07-09T05:30:28.867Z,23.19
2018-07-09T05:32:55.332Z,23.13
2018-07-09T05:35:21.785Z,23.18
2018-07-09T05:37:48.128Z,23.18
2018-07-09T05:40:14.650Z,23.17
2018-07-09T05:42:41.134Z,23.28
2018-07-09T05:45:07.585Z,23.24
2018-07-09T05:47:34.060Z,23.28
2018-07-09T05:50:00.525Z,23.31
2018-07-09T05:52:26.920Z,23.31
2018-07-09T05:54:53.460Z,23.38
2018-07-09T05:57:19.896Z,23.33
2018-07-09T05:59:46.521Z,23.37
2018-07-09T06:02:13.041Z,23.43
2018-07-09T06:04:39.507Z,23.66
2018-07-09T06:07:06.076Z,23.77
2018-07-09T06:09:32.445Z,23.78
2018-07-09T06:11:59.032Z,23.88
2018-07-09T06:14:25.519Z,23.83
2018-07-09T06:16:51.941Z,23.89
2018-07-09T06:19:18.469Z,23.78
2018-07-09T06:21:44.923Z,23.90
2018-07-09T06:24:11.464Z,24.03
2018-07-09T06:26:37.912Z,23.99
2018-07-09T06:29:04.684Z,23.95
2018-07-09T06:31:31.219Z,23.97
2018-07-09T06:33:58.170Z,23.89
2018-07-09T06:36:25.053Z,23.90
2018-07-09T06:38:52.020Z,24.11
2018-07-09T06:41:19.156Z,24.14
2018-07-09T06:43:46.396Z,24.07
2018-07-09T06:46:13.108Z,24.13
2018-07-09T06:48:40.202Z,24.19
2018-07-09T06:51:06.851Z,24.22
2018-07-09T06:53:33.330Z,24.28
2018-07-09T06:56:00.123Z,24.29
2018-07-09T06:58:26.707Z,24.22
2018-07-09T07:00:54.841Z,24.25
2018-07-09T07:03:21.401Z,24.37
2018-07-09T07:05:47.908Z,24.46
2018-07-09T07:08:14.548Z,24.49
2018-07-09T07:10:41.280Z,24.48
2018-07-09T07:13:07.688Z,24.53
2018-07-09T07:15:34.084Z,24.60
2018-07-09T07:18:00.876Z,24.47
2018-07-09T07:20:27.537Z,24.57
2018-07-09T07:22:54.338Z,24.60
2018-07-09T07:25:22.939Z,24.53
2018-07-09T07:27:49.681Z,24.59
2018-07-09T07:30:16.494Z,24.60
2018-07-09T07:32:43.310Z,24.68
2018-07-09T07:35:10.219Z,24.74
2018-07-09T07:37:36.957Z,24.75
2018-07-09T07:40:03.732Z,24.76
2018-07-09T07:42:30.569Z,24.75
2018-07-09T07:44:57.643Z,24.84
2018-07-09T07:47:24.622Z,24.84
2018-07-09T07:49:51.439Z,24.95
2018-07-09T07:52:17.986Z,25.01
2018-07-09T07:54:45.057Z,25.00
2018-07-09T07:57:11.631Z,25.01
2018-07-09T07:59:38.856Z,25.04
2018-07-09T08:02:05.687Z,25.09
2018-07-09T08:04:33.421Z,25.09
2018-07-09T08:07:00.067Z,25.11
2018-07-09T08:09:26.839Z,25.13
2018-07-09T08:11:53.551Z,25.04
2018-07-09T08:14:20.120Z,25.18
2018-07-09T08:16:47.055Z,25.16
2018-07-09T08:19:14.162Z,25.22
2018-07-09T08:21:41.003Z,25.24
2018-07-09T08:24:07.835Z,25.19
2018-07-09T08:26:34.575Z,25.12
2018-07-09T08:29:01.367Z,25.22
2018-07-09T08:31:27.877Z,25.26
2018-07-09T08:33:54.531Z,25.17
2018-07-09T08:36:21.927Z,25.14
2018-07-09T08:38:49.136Z,25.21
2018-07-09T08:41:16.069Z,25.22
2018-07-09T08:43:44.348Z,25.13
2018-07-09T08:46:11.117Z,25.08
2018-07-09T08:48:37.969Z,25.21
2018-07-09T08:51:04.845Z,25.28
2018-07-09T08:53:31.243Z,25.28
2018-07-09T08:55:58.069Z,25.20
2018-07-09T08:58:24.524Z,25.11
2018-07-09T09:00:58.522Z,25.21
2018-07-09T09:03:25.476Z,25.10
2018-07-09T09:05:51.911Z,25.19
2018-07-09T09:08:18.296Z,25.16
2018-07-09T09:10:44.795Z,25.17
2018-07-09T09:13:11.223Z,25.19
2018-07-09T09:15:37.801Z,25.17
2018-07-09T09:18:04.593Z,25.19
2018-07-09T09:20:31.324Z,25.16
2018-07-09T09:22:57.834Z,25.11
2018-07-09T09:25:24.658Z,25.13
2018-07-09T09:27:51.338Z,25.14
2018-07-09T09:30:18.202Z,25.14
2018-07-09T09:32:44.791Z,25.16
2018-07-09T09:35:11.278Z,25.19
2018-07-09T09:37:37.776Z,25.22
2018-07-09T09:40:04.623Z,25.07
2018-07-09T09:42:31.254Z,25.13
2018-07-09T09:44:57.867Z,25.20
2018-07-09T09:47:25.133Z,25.25
2018-07-09T09:49:51.744Z,25.21
2018-07-09T09:52:18.259Z,25.28
2018-07-09T09:54:45.035Z,25.27
2018-07-09T09:57:11.670Z,25.16
2018-07-09T09:59:38.397Z,25.23
2018-07-09T10:02:04.947Z,25.24
2018-07-09T10:04:31.554Z,25.26
2018-07-09T10:06:58.390Z,25.33
2018-07-09T10:09:24.846Z,25.19
2018-07-09T10:11:51.495Z,25.31
2018-07-09T10:14:18.165Z,25.26
2018-07-09T10:16:45.266Z,25.30
2018-07-09T10:19:11.693Z,25.24
2018-07-09T10:21:38.136Z,25.23
2018-07-09T10:24:04.757Z,25.28
2018-07-09T10:26:31.344Z,25.17
2018-07-09T10:28:57.934Z,25.21
2018-07-09T10:31:24.899Z,25.29
2018-07-09T10:33:51.709Z,25.20
2018-07-09T10:36:18.237Z,25.20
2018-07-09T10:38:44.669Z,25.21
2018-07-09T10:41:11.994Z,25.24
2018-07-09T10:43:38.745Z,25.21
2018-07-09T10:46:05.658Z,25.20
2018-07-09T10:48:32.413Z,25.21
2018-07-09T10:50:59.335Z,25.22
2018-07-09T10:53:25.872Z,25.25
2018-07-09T10:55:52.337Z,25.24
2018-07-09T10:58:19.348Z,25.20
2018-07-09T11:00:46.488Z,25.29
2018-07-09T11:03:13.265Z,25.30
2018-07-09T11:05:39.792Z,25.34
2018-07-09T11:08:06.678Z,25.33
2018-07-09T11:10:33.661Z,25.27
2018-07-09T11:13:00.270Z,25.46
2018-07-09T11:15:27.387Z,25.33
2018-07-09T11:17:54.848Z,25.39
2018-07-09T11:20:21.823Z,25.35
2018-07-09T11:22:48.314Z,25.35
2018-07-09T11:25:14.821Z,25.38
2018-07-09T11:27:41.734Z,25.32
2018-07-09T11:30:08.589Z,25.43
2018-07-09T11:32:35.099Z,25.41
2018-07-09T11:35:01.823Z,25.36
2018-07-09T11:37:28.748Z,25.50
2018-07-09T11:39:55.634Z,25.48
2018-07-09T11:42:22.810Z,25.50
2018-07-09T11:44:49.434Z,25.50
2018-07-09T11:47:16.076Z,25.51
2018-07-09T11:49:43.433Z,25.52
2018-07-09T11:52:10.207Z,25.44
2018-07-09T11:54:36.847Z,25.49
2018-07-09T11:57:03.297Z,25.53
2018-07-09T11:59:30.451Z,25.52
2018-07-09T12:01:59.834Z,25.63
2018-07-09T12:04:26.789Z,25.54
2018-07-09T12:06:53.597Z,25.53
2018-07-09T12:09:20.232Z,25.62
2018-07-09T12:11:46.825Z,25.62
2018-07-09T12:14:13.578Z,25.55
2018-07-09T12:16:41.385Z,25.53
2018-07-09T12:19:08.536Z,25.51
2018-07-09T12:21:35.558Z,25.59
2018-07-09T12:24:02.961Z,25.64
2018-07-09T12:26:29.909Z,25.55
2018-07-09T12:28:57.065Z,25.59
2018-07-09T12:31:24.555Z,25.60
2018-07-09T12:33:52.064Z,25.58
2018-07-09T12:36:19.883Z,25.53
2018-07-09T12:38:47.092Z,25.54
2018-07-09T12:41:14.067Z,25.58
2018-07-09T12:43:41.118Z,25.47
2018-07-09T12:46:08.486Z,25.54
2018-07-09T12:48:35.412Z,25.54
2018-07-09T12:51:03.705Z,25.49
2018-07-09T12:53:30.703Z,25.49
2018-07-09T12:55:57.788Z,25.74
2018-07-09T12:58:24.792Z,25.66
2018-07-09T13:00:52.157Z,25.67
2018-07-09T13:03:19.661Z,25.63
2018-07-09T13:05:46.646Z,25.67
2018-07-09T13:08:13.519Z,25.64
2018-07-09T13:13:19.130Z,25.68
2018-07-09T13:15:45.836Z,25.72
2018-07-09T13:18:12.414Z,25.67
2018-07-09T13:20:38.963Z,25.66
2018-07-09T13:23:06.347Z,25.68
2018-07-09T13:25:33.658Z,25.56
2018-07-09T13:28:01.367Z,25.67
2018-07-09T13:30:28.206Z,25.64
2018-07-09T13:32:55.600Z,25.63
2018-07-09T13:35:22.848Z,25.60
2018-07-09T13:37:53.555Z,25.51
2018-07-09T13:40:23.987Z,25.58
2018-07-09T13:42:51.125Z,25.67
2018-07-09T13:45:18.187Z,25.64
2018-07-09T13:47:45.619Z,25.67
2018-07-09T13:50:12.689Z,25.65
2018-07-09T13:52:44.922Z,25.73
2018-07-09T13:55:11.841Z,25.61
2018-07-09T13:57:38.380Z,25.72
2018-07-09T14:00:05.983Z,25.61
2018-07-09T14:02:32.948Z,25.74
2018-07-09T14:04:59.415Z,25.70
2018-07-09T14:07:25.969Z,25.73
2018-07-09T14:09:52.386Z,25.68
2018-07-09T14:12:19.897Z,25.65
2018-07-09T14:17:18.072Z,25.67
2018-07-09T14:19:44.723Z,25.64
2018-07-09T14:22:11.140Z,25.79
2018-07-09T14:24:37.604Z,25.63
2018-07-09T14:27:03.950Z,25.56
2018-07-09T14:29:30.680Z,25.62
2018-07-09T14:31:57.096Z,25.61
2018-07-09T14:34:23.806Z,25.60
2018-07-09T14:36:50.451Z,25.62
2018-07-09T14:39:17.077Z,25.56
2018-07-09T14:41:43.736Z,25.67
2018-07-09T14:44:10.428Z,25.58
2018-07-09T14:46:37.318Z,25.55
2018-07-09T14:49:03.748Z,25.49
2018-07-09T14:51:30.240Z,25.54
2018-07-09T14:53:56.892Z,25.63
2018-07-09T14:56:23.778Z,25.53
2018-07-09T14:58:50.234Z,25.49
2018-07-09T15:01:16.744Z,25.60
2018-07-09T15:03:43.234Z,25.40
2018-07-09T15:06:09.937Z,25.43
2018-07-09T15:08:36.396Z,25.42
2018-07-09T15:11:02.957Z,25.28
2018-07-09T15:13:29.678Z,25.41
2018-07-09T15:15:56.132Z,25.38
2018-07-09T15:18:22.523Z,25.36
2018-07-09T15:20:49.059Z,25.34
2018-07-09T15:23:15.533Z,25.31
2018-07-09T15:25:41.894Z,25.26
2018-07-09T15:28:08.271Z,25.19
2018-07-09T15:30:34.618Z,25.20
2018-07-09T15:33:01.010Z,25.19
2018-07-09T15:35:27.355Z,25.23
2018-07-09T15:37:53.708Z,25.19
2018-07-09T15:40:20.046Z,25.19
2018-07-09T15:42:46.447Z,25.06
2018-07-09T15:45:12.792Z,25.14
2018-07-09T15:47:39.131Z,25.03
2018-07-09T15:50:05.510Z,25.05
2018-07-09T15:52:31.892Z,25.05
2018-07-09T15:54:58.281Z,25.09
2018-07-09T15:57:24.611Z,25.02
2018-07-09T15:59:51.006Z,25.04
2018-07-09T16:02:17.339Z,24.93
2018-07-09T16:04:43.693Z,24.94
2018-07-09T16:07:10.097Z,24.95
2018-07-09T16:09:36.428Z,24.85
2018-07-09T16:12:02.843Z,24.89
2018-07-09T16:14:29.221Z,24.89
2018-07-09T16:16:55.562Z,24.84
2018-07-09T16:19:21.939Z,24.85
2018-07-09T16:21:48.294Z,24.84
2018-07-09T16:24:14.648Z,24.82
2018-07-09T16:26:40.970Z,24.81
2018-07-09T16:29:07.419Z,24.81
2018-07-09T16:31:33.799Z,24.72
2018-07-09T16:34:00.168Z,24.73
2018-07-09T16:36:26.629Z,24.69
2018-07-09T16:38:52.897Z,24.68
2018-07-09T16:41:19.248Z,24.69
2018-07-09T16:43:45.689Z,24.63
2018-07-09T16:46:12.055Z,24.63
2018-07-09T16:48:38.437Z,24.60
2018-07-09T16:51:04.772Z,24.56
2018-07-09T16:53:31.232Z,24.62
2018-07-09T16:55:57.587Z,24.59
2018-07-09T16:58:23.942Z,24.49
2018-07-09T17:00:50.314Z,24.50
2018-07-09T17:03:16.773Z,24.43
2018-07-09T17:05:43.108Z,24.53
2018-07-09T17:08:09.544Z,24.52
2018-07-09T17:10:35.867Z,24.55
2018-07-09T17:13:02.208Z,24.56
2018-07-09T17:15:28.550Z,24.59
2018-07-09T17:17:54.937Z,24.61
2018-07-09T17:20:21.343Z,24.61
2018-07-09T17:22:47.711Z,24.60
2018-07-09T17:25:14.097Z,24.62
2018-07-09T17:27:40.589Z,24.59
2018-07-09T17:30:07.309Z,24.60
2018-07-09T17:32:33.933Z,24.57
2018-07-09T17:35:00.637Z,24.62
2018-07-09T17:37:27.304Z,24.56
2018-07-09T17:39:53.906Z,24.57
2018-07-09T17:42:20.253Z,24.59
2018-07-09T17:44:46.707Z,24.55
2018-07-09T17:47:13.108Z,24.54
2018-07-09T17:49:39.442Z,24.55
2018-07-09T17:52:05.845Z,24.58
2018-07-09T17:54:32.220Z,24.55
2018-07-09T17:56:58.830Z,24.55
2018-07-09T17:59:25.576Z,24.56
2018-07-09T18:01:52.209Z,24.58
2018-07-09T18:04:18.790Z,24.55
2018-07-09T18:06:45.429Z,24.55
2018-07-09T18:09:11.778Z,24.50
2018-07-09T18:11:38.147Z,24.58
2018-07-09T18:14:04.791Z,24.58
2018-07-09T18:16:31.115Z,24.58
2018-07-09T18:18:57.507Z,24.61
2018-07-09T18:21:23.912Z,24.54
2018-07-09T18:23:50.568Z,24.47
2018-07-09T18:26:16.989Z,24.55
2018-07-09T18:28:43.360Z,24.55
2018-07-09T18:31:09.785Z,24.50
2018-07-09T18:33:36.376Z,24.50
2018-07-09T18:36:02.700Z,24.44
2018-07-09T18:38:29.094Z,24.47
2018-07-09T18:40:55.449Z,24.49
2018-07-09T18:43:22.123Z,24.42
2018-07-09T18:45:48.795Z,24.45
2018-07-09T18:48:15.165Z,24.51
2018-07-09T18:50:41.491Z,24.44
2018-07-09T18:53:08.146Z,24.44
2018-07-09T18:55:34.482Z,24.42
2018-07-09T18:58:00.897Z,24.43
2018-07-09T19:00:27.313Z,24.37
2018-07-09T19:02:53.744Z,24.42
2018-07-09T19:05:20.156Z,24.45
2018-07-09T19:07:46.760Z,24.44
2018-07-09T19:10:13.132Z,24.35
2018-07-09T19:12:39.583Z,24.45
2018-07-09T19:15:06.296Z,24.39
2018-07-09T19:17:32.874Z,24.36
2018-07-09T19:19:59.437Z,24.36
2018-07-09T19:22:25.848Z,24.28
2018-07-09T19:24:52.314Z,24.44
2018-07-09T19:27:19.048Z,24.43
2018-07-09T19:29:46.643Z,24.39
2018-07-09T19:32:13.558Z,24.40
2018-07-09T19:34:40.036Z,24.31
2018-07-09T19:37:06.477Z,24.39
2018-07-09T19:39:32.906Z,24.41
2018-07-09T19:41:59.260Z,24.37
2018-07-09T19:44:25.617Z,24.25
2018-07-09T19:46:52.058Z,24.19
2018-07-09T19:49:18.488Z,24.16
2018-07-09T19:51:44.846Z,24.12
2018-07-09T19:54:11.172Z,24.05
2018-07-09T19:56:37.546Z,24.01
2018-07-09T19:59:04.025Z,24.02
2018-07-09T20:01:30.343Z,24.05
2018-07-09T20:03:56.662Z,24.04
2018-07-09T20:06:23.029Z,24.04
2018-07-09T20:08:49.452Z,24.02
2018-07-09T20:11:15.792Z,24.07
2018-07-09T20:13:42.119Z,24.04
2018-07-09T20:16:08.448Z,24.04
2018-07-09T20:18:35.306Z,24.05
2018-07-09T20:21:01.752Z,24.10
2018-07-09T20:23:28.070Z,24.01
2018-07-09T20:25:54.448Z,24.04
2018-07-09T20:28:22.926Z,24.04
2018-07-09T20:30:49.347Z,24.05
2018-07-09T20:33:15.958Z,24.04
2018-07-09T20:35:42.289Z,24.07
2018-07-09T20:38:08.766Z,24.03
2018-07-09T20:40:36.429Z,24.03
2018-07-09T20:43:03.241Z,24.10
2018-07-09T20:45:31.169Z,24.05
2018-07-09T20:47:58.063Z,24.10
2018-07-09T20:50:24.907Z,24.05
2018-07-09T20:52:51.408Z,24.08
2018-07-09T20:55:21.611Z,24.16
2018-07-09T20:57:48.046Z,24.14
2018-07-09T21:00:14.449Z,24.09
2018-07-09T21:02:40.831Z,24.13
2018-07-09T21:05:07.603Z,24.06
2018-07-09T21:07:34.343Z,24.04
2018-07-09T21:10:00.687Z,24.05
2018-07-09T21:12:27.120Z,24.00
2018-07-09T21:14:53.533Z,23.95
2018-07-09T21:17:19.981Z,23.86
2018-07-09T21:19:46.576Z,23.95
2018-07-09T21:22:13.003Z,23.92
2018-07-09T21:24:39.339Z,23.89
2018-07-09T21:27:06.840Z,23.87
2018-07-09T21:29:33.159Z,23.90
2018-07-09T21:31:59.482Z,23.84
2018-07-09T21:34:30.010Z,23.77
2018-07-09T21:37:00.095Z,23.82
2018-07-09T21:39:27.474Z,23.82
2018-07-09T21:41:54.550Z,23.84
2018-07-09T21:44:22.363Z,23.84
2018-07-09T21:46:49.229Z,23.81
2018-07-09T21:49:15.724Z,23.75
2018-07-09T21:51:42.251Z,23.71
2018-07-09T21:54:09.177Z,23.79
2018-07-09T21:56:35.805Z,23.77
2018-07-09T21:59:02.352Z,23.75
2018-07-09T22:01:29.135Z,23.66
2018-07-09T22:03:55.691Z,23.74
2018-07-09T22:06:22.380Z,23.68
2018-07-09T22:08:49.713Z,23.71
2018-07-09T22:11:16.778Z,23.71
2018-07-09T22:13:43.464Z,23.67
2018-07-09T22:16:10.514Z,23.73
2018-07-09T22:18:37.219Z,23.59
2018-07-09T22:21:07.863Z,23.65
2018-07-09T22:23:34.536Z,23.62
2018-07-09T22:26:00.906Z,23.65
2018-07-09T22:28:28.207Z,23.64
2018-07-09T22:30:55.808Z,23.64
2018-07-09T22:33:22.487Z,23.61
2018-07-09T22:35:49.331Z,23.61
2018-07-09T22:38:16.069Z,23.59
2018-07-09T22:40:42.485Z,23.68
2018-07-09T22:43:09.362Z,23.66
2018-07-09T22:45:36.074Z,23.70
2018-07-09T22:48:02.411Z,23.73
2018-07-09T22:50:29.586Z,23.76
2018-07-09T22:52:56.343Z,23.75
2018-07-09T22:55:22.802Z,23.83
2018-07-09T22:57:49.531Z,23.79
2018-07-09T23:00:16.773Z,23.83
2018-07-09T23:02:43.225Z,23.85
2018-07-09T23:05:09.592Z,23.85
2018-07-09T23:07:36.841Z,23.85
2018-07-09T23:10:04.110Z,23.86
2018-07-09T23:12:30.533Z,23.87
2018-07-09T23:14:57.693Z,23.91
2018-07-09T23:17:24.132Z,23.91
2018-07-09T23:19:50.458Z,23.97
2018-07-09T23:22:16.817Z,23.95
2018-07-09T23:24:43.507Z,23.91
2018-07-09T23:27:10.253Z,23.93
2018-07-09T23:29:36.590Z,23.93
2018-07-09T23:32:03.592Z,23.92
2018-07-09T23:34:30.093Z,23.90
2018-07-09T23:36:56.576Z,23.95
2018-07-09T23:39:23.735Z,23.95
2018-07-09T23:41:52.091Z,23.97
2018-07-09T23:44:18.493Z,23.97
2018-07-09T23:46:45.383Z,24.00
2018-07-09T23:49:12.349Z,23.94
2018-07-09T23:51:38.659Z,23.99
2018-07-09T23:54:06.519Z,23.99
2018-07-09T23:56:32.882Z,23.97
2018-07-09T23:58:59.222Z,24.01
